sensor_id;sensor_type;location;lat;lon;timestamp;pressure;altitude;pressure_sealevel;temperature;humidity
19843;BME280;10082;51.038;6.992;2023-06-04T00:00:15;112171.53;;;-144.33;49.28
19843;BME280;10082;51.038;6.992;2023-06-04T00:02:42;112171.53;;;-144.33;49.81
19843;BME280;10082;51.038;6.992;2023-06-04T00:05:09;112171.53;;;-144.33;49.62
19843;BME280;10082;51.038;6.992;2023-06-04T00:07:37;112171.53;;;-144.33;50.33
19843;BME280;10082;51.038;6.992;2023-06-04T00:10:07;112171.53;;;-144.33;50.84
19843;BME280;10082;51.038;6.992;2023-06-04T00:12:34;112171.53;;;-144.33;52.27
19843;BME280;10082;51.038;6.992;2023-06-04T00:15:02;112171.53;;;-144.33;53.34
19843;BME280;10082;51.038;6.992;2023-06-04T00:17:29;112171.53;;;-144.33;54.77
19843;BME280;10082;51.038;6.992;2023-06-04T00:19:56;112171.53;;;-144.33;55.42
19843;BME280;10082;51.038;6.992;2023-06-04T00:22:24;112171.53;;;-144.33;55.77
19843;BME280;10082;51.038;6.992;2023-06-04T00:24:51;112171.53;;;-144.33;55.03
19843;BME280;10082;51.038;6.992;2023-06-04T00:27:20;112171.53;;;-144.33;55.93
19843;BME280;10082;51.038;6.992;2023-06-04T00:29:47;112171.53;;;-144.33;57.28
19843;BME280;10082;51.038;6.992;2023-06-04T00:32:15;112171.53;;;-144.33;57.71
19843;BME280;10082;51.038;6.992;2023-06-04T00:34:42;112171.53;;;-144.33;58.11
19843;BME280;10082;51.038;6.992;2023-06-04T00:37:09;112171.53;;;-144.33;58.32
19843;BME280;10082;51.038;6.992;2023-06-04T00:39:37;112171.53;;;-144.33;58.87
19843;BME280;10082;51.038;6.992;2023-06-04T00:42:04;112171.53;;;-144.33;59.52
19843;BME280;10082;51.038;6.992;2023-06-04T00:44:35;112171.53;;;-144.33;60.95
19843;BME280;10082;51.038;6.992;2023-06-04T00:47:02;112171.53;;;-144.33;61.56
19843;BME280;10082;51.038;6.992;2023-06-04T00:49:30;112171.53;;;-144.33;62.32
19843;BME280;10082;51.038;6.992;2023-06-04T00:51:57;112171.53;;;-144.33;63.18
19843;BME280;10082;51.038;6.992;2023-06-04T00:54:25;112171.53;;;-144.33;65.01
19843;BME280;10082;51.038;6.992;2023-06-04T00:56:52;112171.53;;;-144.33;65.75
19843;BME280;10082;51.038;6.992;2023-06-04T00:59:19;112171.53;;;-144.33;66.31
19843;BME280;10082;51.038;6.992;2023-06-04T01:01:53;112171.53;;;-144.33;66.94
19843;BME280;10082;51.038;6.992;2023-06-04T01:04:27;112171.53;;;-144.33;67.69
19843;BME280;10082;51.038;6.992;2023-06-04T01:06:57;112171.53;;;-144.33;68.99
19843;BME280;10082;51.038;6.992;2023-06-04T01:09:26;112171.53;;;-144.33;69.91
19843;BME280;10082;51.038;6.992;2023-06-04T01:11:54;112171.53;;;-144.33;70.84
19843;BME280;10082;51.038;6.992;2023-06-04T01:14:24;112171.53;;;-144.33;71.66
19843;BME280;10082;51.038;6.992;2023-06-04T01:16:56;112171.53;;;-144.33;71.72
19843;BME280;10082;51.038;6.992;2023-06-04T01:19:57;112171.53;;;-144.33;72.28
19843;BME280;10082;51.038;6.992;2023-06-04T01:22:34;112171.53;;;-144.33;73.00
19843;BME280;10082;51.038;6.992;2023-06-04T01:25:04;112171.53;;;-144.33;73.53
19843;BME280;10082;51.038;6.992;2023-06-04T01:27:34;112171.53;;;-144.33;73.25
19843;BME280;10082;51.038;6.992;2023-06-04T01:30:01;112171.53;;;-144.33;74.48
19843;BME280;10082;51.038;6.992;2023-06-04T01:32:31;112171.53;;;-144.33;74.69
19843;BME280;10082;51.038;6.992;2023-06-04T01:34:58;112171.53;;;-144.33;75.90
19843;BME280;10082;51.038;6.992;2023-06-04T01:37:26;112171.53;;;-144.33;76.26
19843;BME280;10082;51.038;6.992;2023-06-04T01:39:53;112171.53;;;-144.33;76.81
19843;BME280;10082;51.038;6.992;2023-06-04T01:42:20;112171.53;;;-144.33;77.71
19843;BME280;10082;51.038;6.992;2023-06-04T01:44:47;112171.53;;;-144.33;78.01
19843;BME280;10082;51.038;6.992;2023-06-04T01:47:16;112171.53;;;-144.33;80.25
19843;BME280;10082;51.038;6.992;2023-06-04T01:49:45;112171.53;;;-144.33;80.89
19843;BME280;10082;51.038;6.992;2023-06-04T01:52:13;112171.53;;;-144.33;80.77
19843;BME280;10082;51.038;6.992;2023-06-04T01:54:41;112171.53;;;-144.33;81.57
19843;BME280;10082;51.038;6.992;2023-06-04T01:57:09;112171.53;;;-144.33;82.95
19843;BME280;10082;51.038;6.992;2023-06-04T01:59:36;112171.53;;;-144.33;83.50
19843;BME280;10082;51.038;6.992;2023-06-04T02:02:04;112171.53;;;-144.33;85.20
19843;BME280;10082;51.038;6.992;2023-06-04T02:04:32;112171.53;;;-144.33;86.48
19843;BME280;10082;51.038;6.992;2023-06-04T02:07:03;112171.53;;;-144.33;85.48
19843;BME280;10082;51.038;6.992;2023-06-04T02:09:33;112171.53;;;-144.33;82.08
19843;BME280;10082;51.038;6.992;2023-06-04T02:12:01;112171.53;;;-144.33;83.18
19843;BME280;10082;51.038;6.992;2023-06-04T02:14:28;112171.53;;;-144.33;85.84
19843;BME280;10082;51.038;6.992;2023-06-04T02:16:56;112171.53;;;-144.33;86.45
19843;BME280;10082;51.038;6.992;2023-06-04T02:19:24;112171.53;;;-144.33;88.70
19843;BME280;10082;51.038;6.992;2023-06-04T02:21:52;112171.53;;;-144.33;90.61
19843;BME280;10082;51.038;6.992;2023-06-04T02:24:21;112171.53;;;-144.33;91.94
19843;BME280;10082;51.038;6.992;2023-06-04T02:26:48;112171.53;;;-144.33;93.08
19843;BME280;10082;51.038;6.992;2023-06-04T02:29:15;112171.53;;;-144.33;95.02
19843;BME280;10082;51.038;6.992;2023-06-04T02:31:52;112171.53;;;-144.33;95.54
19843;BME280;10082;51.038;6.992;2023-06-04T02:34:20;112171.53;;;-144.33;95.65
19843;BME280;10082;51.038;6.992;2023-06-04T02:36:49;112171.53;;;-144.33;96.42
19843;BME280;10082;51.038;6.992;2023-06-04T02:39:16;112171.53;;;-144.33;94.70
19843;BME280;10082;51.038;6.992;2023-06-04T02:41:44;112171.53;;;-144.33;93.95
19843;BME280;10082;51.038;6.992;2023-06-04T02:44:11;112171.53;;;-144.33;94.00
19843;BME280;10082;51.038;6.992;2023-06-04T02:46:38;112171.53;;;-144.33;91.36
19843;BME280;10082;51.038;6.992;2023-06-04T02:49:06;112171.53;;;-144.33;92.71
19843;BME280;10082;51.038;6.992;2023-06-04T02:51:32;112171.53;;;-144.33;92.80
19843;BME280;10082;51.038;6.992;2023-06-04T02:54:01;112171.53;;;-144.33;92.91
19843;BME280;10082;51.038;6.992;2023-06-04T02:56:30;112171.53;;;-144.33;92.45
19843;BME280;10082;51.038;6.992;2023-06-04T02:58:59;112171.53;;;-144.33;94.97
19843;BME280;10082;51.038;6.992;2023-06-04T03:01:27;112171.53;;;-144.33;98.20
19843;BME280;10082;51.038;6.992;2023-06-04T03:03:55;112171.53;;;-144.33;98.33
19843;BME280;10082;51.038;6.992;2023-06-04T03:06:23;112171.53;;;-144.33;99.64
19843;BME280;10082;51.038;6.992;2023-06-04T03:08:52;112171.53;;;-144.33;100.00
19843;BME280;10082;51.038;6.992;2023-06-04T03:11:19;112171.53;;;-144.33;100.00
19843;BME280;10082;51.038;6.992;2023-06-04T03:13:48;112171.53;;;-144.33;100.00
19843;BME280;10082;51.038;6.992;2023-06-04T03:16:19;112171.53;;;-144.33;100.00
19843;BME280;10082;51.038;6.992;2023-06-04T03:18:46;112171.53;;;-144.33;100.00
19843;BME280;10082;51.038;6.992;2023-06-04T03:21:13;112171.53;;;-144.33;100.00
19843;BME280;10082;51.038;6.992;2023-06-04T03:23:43;112171.53;;;-144.33;100.00
19843;BME280;10082;51.038;6.992;2023-06-04T03:26:10;112171.53;;;-144.33;100.00
19843;BME280;10082;51.038;6.992;2023-06-04T03:28:38;112171.53;;;-144.33;100.00
19843;BME280;10082;51.038;6.992;2023-06-04T03:31:07;112171.53;;;-144.33;100.00
19843;BME280;10082;51.038;6.992;2023-06-04T03:33:36;112171.53;;;-144.33;100.00
19843;BME280;10082;51.038;6.992;2023-06-04T03:36:03;112171.53;;;-144.33;100.00
19843;BME280;10082;51.038;6.992;2023-06-04T03:38:31;112171.53;;;-144.33;100.00
19843;BME280;10082;51.038;6.992;2023-06-04T03:40:59;112171.53;;;-144.33;100.00
19843;BME280;10082;51.038;6.992;2023-06-04T03:43:26;112171.53;;;-144.33;100.00
19843;BME280;10082;51.038;6.992;2023-06-04T03:45:58;112171.53;;;-144.33;100.00
19843;BME280;10082;51.038;6.992;2023-06-04T03:48:26;112171.53;;;-144.33;100.00
19843;BME280;10082;51.038;6.992;2023-06-04T03:50:55;112171.53;;;-144.33;100.00
19843;BME280;10082;51.038;6.992;2023-06-04T03:53:22;112171.53;;;-144.33;100.00
19843;BME280;10082;51.038;6.992;2023-06-04T03:55:50;112171.53;;;-144.33;100.00
19843;BME280;10082;51.038;6.992;2023-06-04T03:58:17;112171.53;;;-144.33;100.00
19843;BME280;10082;51.038;6.992;2023-06-04T04:00:53;112171.53;;;-144.33;100.00
19843;BME280;10082;51.038;6.992;2023-06-04T04:03:22;112171.53;;;-144.33;100.00
19843;BME280;10082;51.038;6.992;2023-06-04T04:05:49;112171.53;;;-144.33;100.00
19843;BME280;10082;51.038;6.992;2023-06-04T04:08:18;112171.53;;;-144.33;100.00
19843;BME280;10082;51.038;6.992;2023-06-04T04:10:47;112171.53;;;-144.33;100.00
19843;BME280;10082;51.038;6.992;2023-06-04T04:13:14;112171.53;;;-144.33;100.00
19843;BME280;10082;51.038;6.992;2023-06-04T04:15:42;112171.53;;;-144.33;100.00
19843;BME280;10082;51.038;6.992;2023-06-04T04:18:10;112171.53;;;-144.33;100.00
19843;BME280;10082;51.038;6.992;2023-06-04T04:20:38;112171.53;;;-144.33;100.00
19843;BME280;10082;51.038;6.992;2023-06-04T04:23:09;112171.53;;;-144.33;100.00
19843;BME280;10082;51.038;6.992;2023-06-04T04:25:40;112171.53;;;-144.33;100.00
19843;BME280;10082;51.038;6.992;2023-06-04T04:28:10;112171.53;;;-144.33;100.00
19843;BME280;10082;51.038;6.992;2023-06-04T04:30:39;112171.53;;;-144.33;100.00
19843;BME280;10082;51.038;6.992;2023-06-04T04:33:08;112171.53;;;-144.33;100.00
19843;BME280;10082;51.038;6.992;2023-06-04T04:35:44;112171.53;;;-144.33;100.00
19843;BME280;10082;51.038;6.992;2023-06-04T04:38:16;112171.53;;;-144.33;99.79
19843;BME280;10082;51.038;6.992;2023-06-04T04:40:51;112171.53;;;-144.33;99.74
19843;BME280;10082;51.038;6.992;2023-06-04T04:43:39;112171.53;;;-144.33;98.16
19843;BME280;10082;51.038;6.992;2023-06-04T04:46:14;112171.53;;;-144.33;97.94
19843;BME280;10082;51.038;6.992;2023-06-04T04:48:41;112171.53;;;-144.33;98.62
19843;BME280;10082;51.038;6.992;2023-06-04T04:51:09;112171.53;;;-144.33;97.68
19843;BME280;10082;51.038;6.992;2023-06-04T04:53:37;112171.53;;;-144.33;96.94
19843;BME280;10082;51.038;6.992;2023-06-04T04:56:06;112171.53;;;-144.33;94.57
19843;BME280;10082;51.038;6.992;2023-06-04T04:58:36;112171.53;;;-144.33;93.11
19843;BME280;10082;51.038;6.992;2023-06-04T05:01:04;112171.53;;;-144.33;87.94
19843;BME280;10082;51.038;6.992;2023-06-04T05:03:32;112171.53;;;-144.33;83.24
19843;BME280;10082;51.038;6.992;2023-06-04T05:06:00;112171.53;;;-144.33;81.66
19843;BME280;10082;51.038;6.992;2023-06-04T05:08:28;112171.53;;;-144.33;80.06
19843;BME280;10082;51.038;6.992;2023-06-04T05:10:55;112171.53;;;-144.33;80.01
19843;BME280;10082;51.038;6.992;2023-06-04T05:13:27;112171.53;;;-144.33;79.35
19843;BME280;10082;51.038;6.992;2023-06-04T05:15:59;112171.53;;;-144.33;80.48
19843;BME280;10082;51.038;6.992;2023-06-04T05:18:37;112171.53;;;-144.33;76.74
19843;BME280;10082;51.038;6.992;2023-06-04T05:21:10;112171.53;;;-144.33;75.73
19843;BME280;10082;51.038;6.992;2023-06-04T05:23:42;112171.53;;;-144.33;71.30
19843;BME280;10082;51.038;6.992;2023-06-04T05:26:10;112171.53;;;-144.33;70.12
19843;BME280;10082;51.038;6.992;2023-06-04T05:28:39;112171.53;;;-144.33;70.34
19843;BME280;10082;51.038;6.992;2023-06-04T05:31:10;112171.53;;;-144.33;68.08
19843;BME280;10082;51.038;6.992;2023-06-04T05:33:39;112171.53;;;-144.33;66.18
19843;BME280;10082;51.038;6.992;2023-06-04T05:36:12;112171.53;;;-144.33;62.80
19843;BME280;10082;51.038;6.992;2023-06-04T05:38:46;112171.53;;;-144.33;63.50
19843;BME280;10082;51.038;6.992;2023-06-04T05:41:16;112171.53;;;-144.33;62.57
19843;BME280;10082;51.038;6.992;2023-06-04T05:43:50;112171.53;;;-144.33;64.04
19843;BME280;10082;51.038;6.992;2023-06-04T05:46:18;112171.53;;;-144.33;63.23
19843;BME280;10082;51.038;6.992;2023-06-04T05:48:48;112171.53;;;-144.33;62.30
19843;BME280;10082;51.038;6.992;2023-06-04T05:51:17;112171.53;;;-144.33;62.03
19843;BME280;10082;51.038;6.992;2023-06-04T05:53:52;112171.53;;;-144.33;60.98
19843;BME280;10082;51.038;6.992;2023-06-04T05:56:24;112171.53;;;-144.33;58.96
19843;BME280;10082;51.038;6.992;2023-06-04T05:58:57;112171.53;;;-144.33;60.99
19843;BME280;10082;51.038;6.992;2023-06-04T06:01:25;112171.53;;;-144.33;59.85
19843;BME280;10082;51.038;6.992;2023-06-04T06:03:56;112171.53;;;-144.33;59.96
19843;BME280;10082;51.038;6.992;2023-06-04T06:06:28;112171.53;;;-144.33;60.96
19843;BME280;10082;51.038;6.992;2023-06-04T06:08:56;112171.53;;;-144.33;55.07
19843;BME280;10082;51.038;6.992;2023-06-04T06:11:26;112171.53;;;-144.33;50.87
19843;BME280;10082;51.038;6.992;2023-06-04T06:13:58;112171.53;;;-144.33;51.54
19843;BME280;10082;51.038;6.992;2023-06-04T06:16:26;112171.53;;;-144.33;53.85
19843;BME280;10082;51.038;6.992;2023-06-04T06:18:54;112171.53;;;-144.33;51.13
19843;BME280;10082;51.038;6.992;2023-06-04T06:21:29;112171.53;;;-144.33;52.64
19843;BME280;10082;51.038;6.992;2023-06-04T06:23:57;112171.53;;;-144.33;51.20
19843;BME280;10082;51.038;6.992;2023-06-04T06:26:25;112171.53;;;-144.33;52.57
19843;BME280;10082;51.038;6.992;2023-06-04T06:28:56;112171.53;;;-144.33;50.64
19843;BME280;10082;51.038;6.992;2023-06-04T06:31:24;112171.53;;;-144.33;50.66
19843;BME280;10082;51.038;6.992;2023-06-04T06:33:52;112171.53;;;-144.33;48.83
19843;BME280;10082;51.038;6.992;2023-06-04T06:36:19;112171.53;;;-144.33;50.87
19843;BME280;10082;51.038;6.992;2023-06-04T06:38:46;112171.53;;;-144.33;50.94
19843;BME280;10082;51.038;6.992;2023-06-04T06:41:17;112171.53;;;-144.33;51.03
19843;BME280;10082;51.038;6.992;2023-06-04T06:43:44;112171.53;;;-144.33;48.53
19843;BME280;10082;51.038;6.992;2023-06-04T06:46:13;112171.53;;;-144.33;47.11
19843;BME280;10082;51.038;6.992;2023-06-04T06:48:42;112171.53;;;-144.33;50.58
19843;BME280;10082;51.038;6.992;2023-06-04T06:51:11;112171.53;;;-144.33;47.96
19843;BME280;10082;51.038;6.992;2023-06-04T06:53:38;112171.53;;;-144.33;46.93
19843;BME280;10082;51.038;6.992;2023-06-04T06:56:05;112171.53;;;-144.33;43.66
19843;BME280;10082;51.038;6.992;2023-06-04T06:58:33;112171.53;;;-144.33;42.12
19843;BME280;10082;51.038;6.992;2023-06-04T07:01:00;112171.53;;;-144.33;40.16
19843;BME280;10082;51.038;6.992;2023-06-04T07:03:28;112171.53;;;-144.33;39.45
19843;BME280;10082;51.038;6.992;2023-06-04T07:05:57;112171.53;;;-144.33;42.17
19843;BME280;10082;51.038;6.992;2023-06-04T07:08:25;112171.53;;;-144.33;42.19
19843;BME280;10082;51.038;6.992;2023-06-04T07:10:53;112171.53;;;-144.33;40.42
19843;BME280;10082;51.038;6.992;2023-06-04T07:13:21;112171.53;;;-144.33;41.52
19843;BME280;10082;51.038;6.992;2023-06-04T07:15:48;112171.53;;;-144.33;40.75
19843;BME280;10082;51.038;6.992;2023-06-04T07:18:15;112171.53;;;-144.33;39.34
19843;BME280;10082;51.038;6.992;2023-06-04T07:20:42;112171.53;;;-144.33;39.64
19843;BME280;10082;51.038;6.992;2023-06-04T07:23:11;112171.53;;;-144.33;38.18
19843;BME280;10082;51.038;6.992;2023-06-04T07:25:38;112171.53;;;-144.33;37.90
19843;BME280;10082;51.038;6.992;2023-06-04T07:28:05;112171.53;;;-144.33;36.46
19843;BME280;10082;51.038;6.992;2023-06-04T07:30:33;112171.53;;;-144.33;36.25
19843;BME280;10082;51.038;6.992;2023-06-04T07:33:02;112171.53;;;-144.33;35.14
19843;BME280;10082;51.038;6.992;2023-06-04T07:35:30;112171.53;;;-144.33;35.22
19843;BME280;10082;51.038;6.992;2023-06-04T07:37:57;112171.53;;;-144.33;34.98
19843;BME280;10082;51.038;6.992;2023-06-04T07:40:25;112171.53;;;-144.33;35.37
19843;BME280;10082;51.038;6.992;2023-06-04T07:42:53;112171.53;;;-144.33;36.04
19843;BME280;10082;51.038;6.992;2023-06-04T07:45:20;112171.53;;;-144.33;35.13
19843;BME280;10082;51.038;6.992;2023-06-04T07:47:53;112171.53;;;-144.33;34.09
19843;BME280;10082;51.038;6.992;2023-06-04T07:50:24;112171.53;;;-144.33;36.90
19843;BME280;10082;51.038;6.992;2023-06-04T07:52:54;112171.53;;;-144.33;35.05
19843;BME280;10082;51.038;6.992;2023-06-04T07:55:22;112171.53;;;-144.33;33.64
19843;BME280;10082;51.038;6.992;2023-06-04T07:57:51;112171.53;;;-144.33;34.23
19843;BME280;10082;51.038;6.992;2023-06-04T08:00:19;112171.53;;;-144.33;32.05
19843;BME280;10082;51.038;6.992;2023-06-04T08:02:46;112171.53;;;-144.33;31.81
19843;BME280;10082;51.038;6.992;2023-06-04T08:05:14;112171.53;;;-144.33;31.25
19843;BME280;10082;51.038;6.992;2023-06-04T08:07:41;112171.53;;;-144.33;31.95
19843;BME280;10082;51.038;6.992;2023-06-04T08:10:09;112171.53;;;-144.33;31.47
19843;BME280;10082;51.038;6.992;2023-06-04T08:12:37;112171.53;;;-144.33;30.90
19843;BME280;10082;51.038;6.992;2023-06-04T08:15:07;112171.53;;;-144.33;30.22
19843;BME280;10082;51.038;6.992;2023-06-04T08:17:34;112171.53;;;-144.33;29.68
19843;BME280;10082;51.038;6.992;2023-06-04T08:20:07;112171.53;;;-144.33;29.58
19843;BME280;10082;51.038;6.992;2023-06-04T08:22:35;112171.53;;;-144.33;29.75
19843;BME280;10082;51.038;6.992;2023-06-04T08:25:03;112171.53;;;-144.33;30.16
19843;BME280;10082;51.038;6.992;2023-06-04T08:27:31;112171.53;;;-144.33;30.05
19843;BME280;10082;51.038;6.992;2023-06-04T08:29:58;112171.53;;;-144.33;29.48
19843;BME280;10082;51.038;6.992;2023-06-04T08:32:29;112171.53;;;-144.33;29.74
19843;BME280;10082;51.038;6.992;2023-06-04T08:34:56;112171.53;;;-144.33;29.82
19843;BME280;10082;51.038;6.992;2023-06-04T08:37:29;112171.53;;;-144.33;29.36
19843;BME280;10082;51.038;6.992;2023-06-04T08:39:56;112171.53;;;-144.33;28.81
19843;BME280;10082;51.038;6.992;2023-06-04T08:42:29;112171.53;;;-144.33;29.40
19843;BME280;10082;51.038;6.992;2023-06-04T08:44:58;112171.53;;;-144.33;28.50
19843;BME280;10082;51.038;6.992;2023-06-04T08:47:35;112171.53;;;-144.33;28.78
19843;BME280;10082;51.038;6.992;2023-06-04T08:50:06;112171.53;;;-144.33;29.04
19843;BME280;10082;51.038;6.992;2023-06-04T08:52:37;112171.53;;;-144.33;28.28
19843;BME280;10082;51.038;6.992;2023-06-04T08:55:05;112171.53;;;-144.33;28.17
19843;BME280;10082;51.038;6.992;2023-06-04T08:57:33;112171.53;;;-144.33;28.19
19843;BME280;10082;51.038;6.992;2023-06-04T09:00:03;112171.53;;;-144.33;28.00
19843;BME280;10082;51.038;6.992;2023-06-04T09:02:35;112171.53;;;-144.33;27.71
19843;BME280;10082;51.038;6.992;2023-06-04T09:05:07;112171.53;;;-144.33;28.36
19843;BME280;10082;51.038;6.992;2023-06-04T09:07:36;112171.53;;;-144.33;28.42
19843;BME280;10082;51.038;6.992;2023-06-04T09:10:07;112171.53;;;-144.33;28.57
19843;BME280;10082;51.038;6.992;2023-06-04T09:12:42;112171.53;;;-144.33;28.01
19843;BME280;10082;51.038;6.992;2023-06-04T09:15:11;112171.53;;;-144.33;26.58
19843;BME280;10082;51.038;6.992;2023-06-04T09:17:40;112171.53;;;-144.33;27.59
19843;BME280;10082;51.038;6.992;2023-06-04T09:20:08;112171.53;;;-144.33;27.30
19843;BME280;10082;51.038;6.992;2023-06-04T09:22:45;112171.53;;;-144.33;27.51
19843;BME280;10082;51.038;6.992;2023-06-04T09:25:20;112171.53;;;-144.33;27.67
19843;BME280;10082;51.038;6.992;2023-06-04T09:27:47;112171.53;;;-144.33;28.27
19843;BME280;10082;51.038;6.992;2023-06-04T09:30:15;112171.53;;;-144.33;28.27
19843;BME280;10082;51.038;6.992;2023-06-04T09:32:44;112171.53;;;-144.33;28.24
19843;BME280;10082;51.038;6.992;2023-06-04T09:35:12;112171.53;;;-144.33;26.18
19843;BME280;10082;51.038;6.992;2023-06-04T09:37:52;112171.53;;;-144.33;26.04
19843;BME280;10082;51.038;6.992;2023-06-04T09:40:21;112171.53;;;-144.33;26.84
19843;BME280;10082;51.038;6.992;2023-06-04T09:42:50;112171.53;;;-144.33;27.25
19843;BME280;10082;51.038;6.992;2023-06-04T09:45:26;112171.53;;;-144.33;26.89
19843;BME280;10082;51.038;6.992;2023-06-04T09:47:56;112171.53;;;-144.33;26.40
19843;BME280;10082;51.038;6.992;2023-06-04T09:50:27;112171.53;;;-144.33;26.37
19843;BME280;10082;51.038;6.992;2023-06-04T09:52:55;112171.53;;;-144.33;26.24
19843;BME280;10082;51.038;6.992;2023-06-04T09:55:23;112171.53;;;-144.33;25.93
19843;BME280;10082;51.038;6.992;2023-06-04T09:57:53;112171.53;;;-144.33;25.90
19843;BME280;10082;51.038;6.992;2023-06-04T10:00:23;112171.53;;;-144.33;25.37
19843;BME280;10082;51.038;6.992;2023-06-04T10:02:56;112171.53;;;-144.33;26.38
19843;BME280;10082;51.038;6.992;2023-06-04T10:05:26;112171.53;;;-144.33;25.49
19843;BME280;10082;51.038;6.992;2023-06-04T10:07:57;112171.53;;;-144.33;25.24
19843;BME280;10082;51.038;6.992;2023-06-04T10:10:26;112171.53;;;-144.33;26.43
19843;BME280;10082;51.038;6.992;2023-06-04T10:13:00;112171.53;;;-144.33;24.80
19843;BME280;10082;51.038;6.992;2023-06-04T10:15:28;112171.53;;;-144.33;25.45
19843;BME280;10082;51.038;6.992;2023-06-04T10:17:59;112171.53;;;-144.33;24.97
19843;BME280;10082;51.038;6.992;2023-06-04T10:20:30;112171.53;;;-144.33;24.29
19843;BME280;10082;51.038;6.992;2023-06-04T10:22:58;112171.53;;;-144.33;24.45
19843;BME280;10082;51.038;6.992;2023-06-04T10:25:26;112171.53;;;-144.33;24.46
19843;BME280;10082;51.038;6.992;2023-06-04T10:27:55;112171.53;;;-144.33;25.05
19843;BME280;10082;51.038;6.992;2023-06-04T10:30:24;112171.53;;;-144.33;24.08
19843;BME280;10082;51.038;6.992;2023-06-04T10:32:51;112171.53;;;-144.33;24.68
19843;BME280;10082;51.038;6.992;2023-06-04T10:35:31;112171.53;;;-144.33;24.22
19843;BME280;10082;51.038;6.992;2023-06-04T10:38:06;112171.53;;;-144.33;23.15
19843;BME280;10082;51.038;6.992;2023-06-04T10:40:34;112171.53;;;-144.33;23.58
19843;BME280;10082;51.038;6.992;2023-06-04T10:43:05;112171.53;;;-144.33;24.22
19843;BME280;10082;51.038;6.992;2023-06-04T10:45:32;112171.53;;;-144.33;26.12
19843;BME280;10082;51.038;6.992;2023-06-04T10:48:00;112171.53;;;-144.33;24.45
19843;BME280;10082;51.038;6.992;2023-06-04T10:50:28;112171.53;;;-144.33;23.33
19843;BME280;10082;51.038;6.992;2023-06-04T10:52:56;112171.53;;;-144.33;25.03
19843;BME280;10082;51.038;6.992;2023-06-04T10:55:24;112171.53;;;-144.33;24.25
19843;BME280;10082;51.038;6.992;2023-06-04T10:57:53;112171.53;;;-144.33;25.11
19843;BME280;10082;51.038;6.992;2023-06-04T11:00:34;112171.53;;;-144.33;24.33
19843;BME280;10082;51.038;6.992;2023-06-04T11:03:02;112171.53;;;-144.33;23.27
19843;BME280;10082;51.038;6.992;2023-06-04T11:05:37;112171.53;;;-144.33;25.17
19843;BME280;10082;51.038;6.992;2023-06-04T11:08:06;112171.53;;;-144.33;25.26
19843;BME280;10082;51.038;6.992;2023-06-04T11:10:36;112171.53;;;-144.33;24.31
19843;BME280;10082;51.038;6.992;2023-06-04T11:13:04;112171.53;;;-144.33;23.52
19843;BME280;10082;51.038;6.992;2023-06-04T11:15:39;112171.53;;;-144.33;23.53
19843;BME280;10082;51.038;6.992;2023-06-04T11:18:08;112171.53;;;-144.33;22.86
19843;BME280;10082;51.038;6.992;2023-06-04T11:20:41;112171.53;;;-144.33;24.17
19843;BME280;10082;51.038;6.992;2023-06-04T11:23:14;112171.53;;;-144.33;24.64
19843;BME280;10082;51.038;6.992;2023-06-04T11:25:43;112171.53;;;-144.33;25.23
19843;BME280;10082;51.038;6.992;2023-06-04T11:28:21;112171.53;;;-144.33;26.41
19843;BME280;10082;51.038;6.992;2023-06-04T11:30:58;112171.53;;;-144.33;25.29
19843;BME280;10082;51.038;6.992;2023-06-04T11:33:27;112171.53;;;-144.33;26.33
19843;BME280;10082;51.038;6.992;2023-06-04T11:35:54;112171.53;;;-144.33;25.13
19843;BME280;10082;51.038;6.992;2023-06-04T11:38:23;112171.53;;;-144.33;23.67
19843;BME280;10082;51.038;6.992;2023-06-04T11:41:03;112171.53;;;-144.33;23.91
19843;BME280;10082;51.038;6.992;2023-06-04T11:43:34;112171.53;;;-144.33;24.27
19843;BME280;10082;51.038;6.992;2023-06-04T11:46:08;112171.53;;;-144.33;22.57
19843;BME280;10082;51.038;6.992;2023-06-04T11:48:35;112171.53;;;-144.33;23.28
19843;BME280;10082;51.038;6.992;2023-06-04T11:51:07;112171.53;;;-144.33;23.60
19843;BME280;10082;51.038;6.992;2023-06-04T11:53:37;112171.53;;;-144.33;22.83
19843;BME280;10082;51.038;6.992;2023-06-04T11:56:06;112171.53;;;-144.33;24.73
19843;BME280;10082;51.038;6.992;2023-06-04T11:58:34;112171.53;;;-144.33;23.22
19843;BME280;10082;51.038;6.992;2023-06-04T12:01:02;112171.53;;;-144.33;23.66
19843;BME280;10082;51.038;6.992;2023-06-04T12:03:36;112171.53;;;-144.33;23.05
19843;BME280;10082;51.038;6.992;2023-06-04T12:06:18;112171.53;;;-144.33;23.00
19843;BME280;10082;51.038;6.992;2023-06-04T12:08:51;112171.53;;;-144.33;23.25
19843;BME280;10082;51.038;6.992;2023-06-04T12:11:25;112171.53;;;-144.33;23.20
19843;BME280;10082;51.038;6.992;2023-06-04T12:13:54;112171.53;;;-144.33;22.96
19843;BME280;10082;51.038;6.992;2023-06-04T12:16:21;112171.53;;;-144.33;25.68
19843;BME280;10082;51.038;6.992;2023-06-04T12:18:49;112171.53;;;-144.33;23.76
19843;BME280;10082;51.038;6.992;2023-06-04T12:21:24;112171.53;;;-144.33;24.78
19843;BME280;10082;51.038;6.992;2023-06-04T12:24:05;112171.53;;;-144.33;24.41
19843;BME280;10082;51.038;6.992;2023-06-04T12:26:33;112171.53;;;-144.33;23.76
19843;BME280;10082;51.038;6.992;2023-06-04T12:29:07;112171.53;;;-144.33;23.42
19843;BME280;10082;51.038;6.992;2023-06-04T12:31:37;112171.53;;;-144.33;24.18
19843;BME280;10082;51.038;6.992;2023-06-04T12:34:04;112171.53;;;-144.33;23.27
19843;BME280;10082;51.038;6.992;2023-06-04T12:36:31;112171.53;;;-144.33;24.05
19843;BME280;10082;51.038;6.992;2023-06-04T12:39:02;112171.53;;;-144.33;24.40